Time;durP1;ratioP1;P1;durP2;ratioP2;P2;SDS_P1;SDS_P2;PMS_P1;PMS_P2;Temp;Humidity;BMP_temperature;BMP_pressure;BME280_temperature;BME280_humidity;BME280_pressure;Samples;Min_cycle;Max_cycle;Signal;HPM_P1;HPM_P2
2022/03/06 00:00:59;;;;;;;;;;;;;;;;;;5095682;28;20382;-77
2022/03/06 00:03:24;;;;;;;;;;;;;;;;;;5095673;28;19920;-78
2022/03/06 00:05:50;;;;;;;;;;;;;;;;;;5095492;28;19959;-77
2022/03/06 00:08:15;;;;;;;;;;;;;;;;;;5094425;28;19916;-76
2022/03/06 00:10:41;;;;;;;;;;;;;;;;;;5094186;28;19923;-77
2022/03/06 00:13:06;;;;;;;;;;;;;;;;;;5095548;28;19942;-77
2022/03/06 00:15:32;;;;;;;;;;;;;;;;;;5095457;28;20443;-78
2022/03/06 00:17:58;;;;;;;;;;;;;;;;;;5095301;28;19916;-78
2022/03/06 00:20:23;;;;;;;;;;;;;;;;;;5095310;28;20011;-77
2022/03/06 00:22:48;;;;;;;;;;;;;;;;;;5095352;28;19969;-77
2022/03/06 00:25:14;;;;;;;;;;;;;;;;;;5095322;28;19923;-78
2022/03/06 00:27:39;;;;;;;;;;;;;;;;;;5093862;28;19916;-77
2022/03/06 00:30:06;;;;;;;;;;;;;;;;;;5095022;28;19920;-77
2022/03/06 00:32:31;;;;;;;;;;;;;;;;;;5095133;28;20035;-77
2022/03/06 00:34:57;;;;;;;;;;;;;;;;;;5095248;28;19956;-76
2022/03/06 00:37:22;;;;;;;;;;;;;;;;;;5095087;28;19916;-77
2022/03/06 00:39:48;;;;;;;;;;;;;;;;;;5095024;28;19916;-77
2022/03/06 00:42:13;;;;;;;;;;;;;;;;;;5094974;28;20460;-77
2022/03/06 00:44:39;;;;;;;;;;;;;;;;;;5095071;28;19923;-76
2022/03/06 00:47:04;;;;;;;;;;;;;;;;;;5094883;28;19916;-77
2022/03/06 00:49:30;;;;;;;;;;;;;;;;;;5093083;28;19977;-77
2022/03/06 00:51:55;;;;;;;;;;;;;;;;;;5094595;28;20003;-78
2022/03/06 00:54:21;;;;;;;;;;;;;;;;;;5094608;28;20295;-76
2022/03/06 00:56:47;;;;;;;;;;;;;;;;;;5094599;28;20288;-80
2022/03/06 00:59:13;;;;;;;;;;;;;;;;;;5094449;28;19916;-77
2022/03/06 01:01:39;;;;;;;;;;;;;;;;;;5094722;28;19916;-77
2022/03/06 01:04:04;;;;;;;;;;;;;;;;;;5094425;28;20379;-78
2022/03/06 01:06:30;;;;;;;;;;;;;;;;;;5094944;28;19916;-77
2022/03/06 01:08:55;;;;;;;;;;;;;;;;;;5094380;28;20331;-78
2022/03/06 01:11:21;;;;;;;;;;;;;;;;;;5094350;28;19963;-77
2022/03/06 01:13:46;;;;;;;;;;;;;;;;;;5094254;28;19923;-78
2022/03/06 01:16:12;;;;;;;;;;;;;;;;;;5094236;28;20384;-78
2022/03/06 01:18:38;;;;;;;;;;;;;;;;;;5094160;28;20007;-77
2022/03/06 01:21:03;;;;;;;;;;;;;;;;;;5093862;28;19967;-77
2022/03/06 01:23:29;;;;;;;;;;;;;;;;;;5094194;28;19917;-78
2022/03/06 01:25:54;;;;;;;;;;;;;;;;;;5093976;28;19959;-77
2022/03/06 01:28:19;;;;;;;;;;;;;;;;;;5092818;28;19916;-77
2022/03/06 01:30:45;;;;;;;;;;;;;;;;;;5094080;28;20315;-77
2022/03/06 01:33:11;;;;;;;;;;;;;;;;;;5094264;28;19916;-79
2022/03/06 01:35:36;;;;;;;;;;;;;;;;;;5094078;28;19920;-77
2022/03/06 01:38:01;;;;;;;;;;;;;;;;;;5093858;28;19916;-76
2022/03/06 01:40:27;;;;;;;;;;;;;;;;;;5094209;28;20025;-77
2022/03/06 01:42:52;;;;;;;;;;;;;;;;;;5093997;28;19916;-75
2022/03/06 01:45:22;;;;;;;;;;;;;;;;;;5093991;28;19916;-76
2022/03/06 01:47:49;;;;;;;;;;;;;;;;;;5093843;28;19923;-77
2022/03/06 01:50:22;;;;;;;;;;;;;;;;;;5093915;28;20019;-77
2022/03/06 01:52:49;;;;;;;;;;;;;;;;;;5094141;28;19939;-78
2022/03/06 01:55:15;;;;;;;;;;;;;;;;;;5093689;28;19920;-76
2022/03/06 01:57:41;;;;;;;;;;;;;;;;;;5093800;28;19922;-76
2022/03/06 02:00:08;;;;;;;;;;;;;;;;;;5093581;28;19963;-76
2022/03/06 02:02:34;;;;;;;;;;;;;;;;;;5093664;28;19998;-77
2022/03/06 02:05:00;;;;;;;;;;;;;;;;;;5093863;28;19985;-77
2022/03/06 02:07:25;;;;;;;;;;;;;;;;;;5093815;28;20007;-77
2022/03/06 02:09:51;;;;;;;;;;;;;;;;;;5093650;28;19916;-77
2022/03/06 02:12:22;;;;;;;;;;;;;;;;;;5093677;28;19970;-77
2022/03/06 02:14:52;;;;;;;;;;;;;;;;;;5093843;28;19923;-77
2022/03/06 02:17:18;;;;;;;;;;;;;;;;;;5093615;28;19923;-77
2022/03/06 02:19:55;;;;;;;;;;;;;;;;;;5093590;28;19916;-76
2022/03/06 02:22:21;;;;;;;;;;;;;;;;;;5093514;28;19951;-77
2022/03/06 02:24:47;;;;;;;;;;;;;;;;;;5093488;28;19920;-78
2022/03/06 02:27:12;;;;;;;;;;;;;;;;;;5092576;28;19955;-77
2022/03/06 02:29:39;;;;;;;;;;;;;;;;;;5093627;28;20291;-77
2022/03/06 02:32:04;;;;;;;;;;;;;;;;;;5094641;28;19920;-76
2022/03/06 02:34:30;;;;;;;;;;;;;;;;;;5097388;28;20359;-77
2022/03/06 02:36:59;;;;;;;;;;;;;;;;;;5097563;28;19920;-77
2022/03/06 02:39:25;;;;;;;;;;;;;;;;;;5097228;28;20372;-76
2022/03/06 02:41:50;;;;;;;;;;;;;;;;;;5097235;28;19923;-77
2022/03/06 02:44:15;;;;;;;;;;;;;;;;;;5097233;28;20363;-77
2022/03/06 02:46:44;;;;;;;;;;;;;;;;;;5097160;28;19916;-77
2022/03/06 02:49:10;;;;;;;;;;;;;;;;;;5097088;28;19917;-77
2022/03/06 02:51:36;;;;;;;;;;;;;;;;;;5097047;28;19916;-76
2022/03/06 02:54:01;;;;;;;;;;;;;;;;;;5096879;28;19916;-77
2022/03/06 02:56:28;;;;;;;;;;;;;;;;;;5096574;28;19920;-76
2022/03/06 02:58:53;;;;;;;;;;;;;;;;;;5096920;28;19950;-77
2022/03/06 03:01:19;;;;;;;;;;;;;;;;;;5096855;28;19920;-77
2022/03/06 03:03:45;;;;;;;;;;;;;;;;;;5096725;28;20295;-77
2022/03/06 03:06:10;;;;;;;;;;;;;;;;;;5096737;28;19922;-76
2022/03/06 03:08:36;;;;;;;;;;;;;;;;;;5096624;28;19943;-77
2022/03/06 03:11:01;;;;;;;;;;;;;;;;;;5096702;28;19916;-78
2022/03/06 03:13:27;;;;;;;;;;;;;;;;;;5096634;28;20303;-76
2022/03/06 03:15:54;;;;;;;;;;;;;;;;;;5096476;28;20030;-78
2022/03/06 03:18:19;;;;;;;;;;;;;;;;;;5096549;28;19922;-77
2022/03/06 03:20:45;;;;;;;;;;;;;;;;;;5096516;28;20006;-76
2022/03/06 03:23:10;;;;;;;;;;;;;;;;;;5096556;28;20268;-76
2022/03/06 03:25:35;;;;;;;;;;;;;;;;;;5096452;28;20322;-77
2022/03/06 03:28:01;;;;;;;;;;;;;;;;;;5096231;28;19916;-77
2022/03/06 03:30:26;;;;;;;;;;;;;;;;;;5096362;28;19923;-77
2022/03/06 03:32:52;;;;;;;;;;;;;;;;;;5096171;28;19916;-78
2022/03/06 03:35:17;;;;;;;;;;;;;;;;;;5096452;28;19916;-77
2022/03/06 03:37:43;;;;;;;;;;;;;;;;;;5096219;28;19916;-77
2022/03/06 03:40:08;;;;;;;;;;;;;;;;;;5095960;28;19916;-77
2022/03/06 03:42:34;;;;;;;;;;;;;;;;;;5096127;28;19917;-77
2022/03/06 03:44:59;;;;;;;;;;;;;;;;;;5096065;28;20369;-77
2022/03/06 03:47:25;;;;;;;;;;;;;;;;;;5096100;28;19924;-77
2022/03/06 03:49:50;;;;;;;;;;;;;;;;;;5095899;28;20376;-76
2022/03/06 03:52:16;;;;;;;;;;;;;;;;;;5095950;28;19955;-77
2022/03/06 03:54:41;;;;;;;;;;;;;;;;;;5095658;28;19920;-78
2022/03/06 03:57:07;;;;;;;;;;;;;;;;;;5095774;28;19955;-76
2022/03/06 03:59:32;;;;;;;;;;;;;;;;;;5095602;28;19916;-79
2022/03/06 04:01:58;;;;;;;;;;;;;;;;;;5095607;28;19916;-78
2022/03/06 04:04:24;;;;;;;;;;;;;;;;;;5094379;28;19912;-78
2022/03/06 04:06:50;;;;;;;;;;;;;;;;;;5094326;28;19917;-77
2022/03/06 04:09:15;;;;;;;;;;;;;;;;;;5095592;28;19919;-77
2022/03/06 04:11:40;;;;;;;;;;;;;;;;;;5095512;28;20287;-77
2022/03/06 04:14:06;;;;;;;;;;;;;;;;;;5095319;28;19963;-77
2022/03/06 04:16:31;;;;;;;;;;;;;;;;;;5095698;28;19915;-76
2022/03/06 04:18:57;;;;;;;;;;;;;;;;;;5095198;28;20367;-77
2022/03/06 04:21:22;;;;;;;;;;;;;;;;;;5095386;28;19917;-77
2022/03/06 04:23:47;;;;;;;;;;;;;;;;;;5095015;28;19912;-77
2022/03/06 04:26:13;;;;;;;;;;;;;;;;;;5095161;28;19918;-77
2022/03/06 04:28:38;;;;;;;;;;;;;;;;;;5095156;28;19919;-77
2022/03/06 04:31:04;;;;;;;;;;;;;;;;;;5095213;28;20379;-77
2022/03/06 04:33:29;;;;;;;;;;;;;;;;;;5095078;28;19916;-77
2022/03/06 04:35:55;;;;;;;;;;;;;;;;;;5094843;28;20279;-79
2022/03/06 04:38:20;;;;;;;;;;;;;;;;;;5094937;28;19916;-78
2022/03/06 04:40:47;;;;;;;;;;;;;;;;;;5094892;28;20260;-77
2022/03/06 04:43:12;;;;;;;;;;;;;;;;;;5094823;28;19916;-78
2022/03/06 04:45:38;;;;;;;;;;;;;;;;;;5094845;28;19941;-77
2022/03/06 04:48:04;;;;;;;;;;;;;;;;;;5094684;28;19920;-77
2022/03/06 04:50:29;;;;;;;;;;;;;;;;;;5094867;28;19916;-76
2022/03/06 04:52:55;;;;;;;;;;;;;;;;;;5095174;28;20260;-76
2022/03/06 04:55:20;;;;;;;;;;;;;;;;;;5094027;28;19927;-76
2022/03/06 04:57:46;;;;;;;;;;;;;;;;;;5094709;28;19927;-77
2022/03/06 05:00:13;;;;;;;;;;;;;;;;;;5094341;28;19923;-78
2022/03/06 05:02:38;;;;;;;;;;;;;;;;;;5094564;28;19916;-75
2022/03/06 05:05:03;;;;;;;;;;;;;;;;;;5094715;28;20260;-77
2022/03/06 05:07:29;;;;;;;;;;;;;;;;;;5094398;28;19922;-77
2022/03/06 05:09:55;;;;;;;;;;;;;;;;;;5094369;28;19939;-78
2022/03/06 05:12:20;;;;;;;;;;;;;;;;;;5094709;28;19923;-76
2022/03/06 05:14:46;;;;;;;;;;;;;;;;;;5094683;28;20322;-77
2022/03/06 05:17:11;;;;;;;;;;;;;;;;;;5093391;28;20420;-77
2022/03/06 05:19:37;;;;;;;;;;;;;;;;;;5094161;28;19920;-78
2022/03/06 05:22:02;;;;;;;;;;;;;;;;;;5094374;28;19916;-79
2022/03/06 05:24:28;;;;;;;;;;;;;;;;;;5094194;28;19923;-75
2022/03/06 05:26:53;;;;;;;;;;;;;;;;;;5094133;28;19939;-74
2022/03/06 05:29:19;;;;;;;;;;;;;;;;;;5094049;28;19923;-78
2022/03/06 05:31:44;;;;;;;;;;;;;;;;;;5094073;28;20371;-76
2022/03/06 05:34:09;;;;;;;;;;;;;;;;;;5094179;28;19917;-76
2022/03/06 05:36:35;;;;;;;;;;;;;;;;;;5094113;28;19920;-76
2022/03/06 05:39:00;;;;;;;;;;;;;;;;;;5093904;28;19938;-76
2022/03/06 05:41:26;;;;;;;;;;;;;;;;;;5093998;28;20319;-77
2022/03/06 05:43:51;;;;;;;;;;;;;;;;;;5092630;28;19949;-76
2022/03/06 05:46:17;;;;;;;;;;;;;;;;;;5094035;28;19916;-76
2022/03/06 05:48:42;;;;;;;;;;;;;;;;;;5093889;28;20292;-76
2022/03/06 05:51:08;;;;;;;;;;;;;;;;;;5093877;28;19912;-77
2022/03/06 05:53:33;;;;;;;;;;;;;;;;;;5093805;28;19959;-77
2022/03/06 05:55:58;;;;;;;;;;;;;;;;;;5093505;28;19927;-76
2022/03/06 05:58:24;;;;;;;;;;;;;;;;;;5093914;28;19916;-77
2022/03/06 06:00:49;;;;;;;;;;;;;;;;;;5093652;28;19916;-76
2022/03/06 06:03:15;;;;;;;;;;;;;;;;;;5093812;28;19923;-77
2022/03/06 06:05:41;;;;;;;;;;;;;;;;;;5093734;28;20383;-76
2022/03/06 06:08:06;;;;;;;;;;;;;;;;;;5096778;28;19920;-77
2022/03/06 06:10:32;;;;;;;;;;;;;;;;;;5096628;28;20093;-77
2022/03/06 06:12:57;;;;;;;;;;;;;;;;;;5097869;28;19916;-78
2022/03/06 06:15:23;;;;;;;;;;;;;;;;;;5097848;28;20366;-78
2022/03/06 06:17:48;;;;;;;;;;;;;;;;;;5097618;28;19967;-77
2022/03/06 06:20:14;;;;;;;;;;;;;;;;;;5097586;28;20007;-77
2022/03/06 06:22:39;;;;;;;;;;;;;;;;;;5098030;28;19916;-78
2022/03/06 06:25:05;;;;;;;;;;;;;;;;;;5097606;28;20371;-78
2022/03/06 06:27:30;;;;;;;;;;;;;;;;;;5097570;28;19916;-77
2022/03/06 06:29:56;;;;;;;;;;;;;;;;;;5095995;28;19959;-77
2022/03/06 06:32:21;;;;;;;;;;;;;;;;;;5097203;28;19923;-77
2022/03/06 06:34:47;;;;;;;;;;;;;;;;;;5097377;28;20268;-78
2022/03/06 06:37:13;;;;;;;;;;;;;;;;;;5097324;28;20318;-77
2022/03/06 06:39:38;;;;;;;;;;;;;;;;;;5097187;28;20388;-77
2022/03/06 06:42:05;;;;;;;;;;;;;;;;;;5097106;28;20005;-76
2022/03/06 06:44:31;;;;;;;;;;;;;;;;;;5097255;28;19916;-76
2022/03/06 06:46:56;;;;;;;;;;;;;;;;;;5097067;28;20316;-77
2022/03/06 06:49:22;;;;;;;;;;;;;;;;;;5097049;28;19916;-77
2022/03/06 06:51:47;;;;;;;;;;;;;;;;;;5096968;28;19916;-77
2022/03/06 06:54:13;;;;;;;;;;;;;;;;;;5096770;28;20376;-77
2022/03/06 06:56:39;;;;;;;;;;;;;;;;;;5096465;28;20368;-76
2022/03/06 06:59:04;;;;;;;;;;;;;;;;;;5095536;28;19923;-77
2022/03/06 07:01:30;;;;;;;;;;;;;;;;;;5096923;28;19923;-77
2022/03/06 07:03:55;;;;;;;;;;;;;;;;;;5096799;28;19955;-76
2022/03/06 07:06:21;;;;;;;;;;;;;;;;;;5096814;28;19987;-76
2022/03/06 07:08:46;;;;;;;;;;;;;;;;;;5097023;28;19999;-78
2022/03/06 07:11:12;;;;;;;;;;;;;;;;;;5096775;28;20413;-76
2022/03/06 07:13:37;;;;;;;;;;;;;;;;;;5096676;28;19916;-77
2022/03/06 07:16:03;;;;;;;;;;;;;;;;;;5096606;28;19916;-77
2022/03/06 07:18:28;;;;;;;;;;;;;;;;;;5096091;28;19916;-77
2022/03/06 07:20:54;;;;;;;;;;;;;;;;;;5096557;28;19942;-78
2022/03/06 07:23:19;;;;;;;;;;;;;;;;;;5096397;28;19924;-78
2022/03/06 07:25:45;;;;;;;;;;;;;;;;;;5096454;28;19916;-77
2022/03/06 07:28:10;;;;;;;;;;;;;;;;;;5096335;28;19916;-77
2022/03/06 07:30:36;;;;;;;;;;;;;;;;;;5096361;28;19916;-81
2022/03/06 07:33:01;;;;;;;;;;;;;;;;;;5096478;28;19916;-76
2022/03/06 07:35:27;;;;;;;;;;;;;;;;;;5096267;28;19961;-76
2022/03/06 07:37:53;;;;;;;;;;;;;;;;;;5096088;28;19959;-77
2022/03/06 07:40:20;;;;;;;;;;;;;;;;;;5096091;28;20383;-77
2022/03/06 07:42:46;;;;;;;;;;;;;;;;;;5096246;28;19920;-77
2022/03/06 07:45:12;;;;;;;;;;;;;;;;;;5096021;28;19916;-77
2022/03/06 07:47:37;;;;;;;;;;;;;;;;;;5096044;28;19916;-77
2022/03/06 07:50:03;;;;;;;;;;;;;;;;;;5095929;28;19920;-75
2022/03/06 07:52:29;;;;;;;;;;;;;;;;;;5095873;28;19923;-78
2022/03/06 07:54:54;;;;;;;;;;;;;;;;;;5095669;28;19928;-74
2022/03/06 07:57:20;;;;;;;;;;;;;;;;;;5095780;28;19939;-78
2022/03/06 07:59:45;;;;;;;;;;;;;;;;;;5095990;28;20417;-78
2022/03/06 08:02:11;;;;;;;;;;;;;;;;;;5095628;28;19916;-76
2022/03/06 08:04:36;;;;;;;;;;;;;;;;;;5077530;28;19955;-77
2022/03/06 08:07:01;;;;;;;;;;;;;;;;;;5095567;28;19923;-77
2022/03/06 08:09:27;;;;;;;;;;;;;;;;;;5095693;28;19916;-78
2022/03/06 08:11:53;;;;;;;;;;;;;;;;;;5077628;28;19955;-78
2022/03/06 08:14:18;;;;;;;;;;;;;;;;;;5095558;28;20007;-79
2022/03/06 08:16:44;;;;;;;;;;;;;;;;;;5095368;28;20380;-78
2022/03/06 08:19:09;;;;;;;;;;;;;;;;;;5095310;28;20327;-77
2022/03/06 08:21:35;;;;;;;;;;;;;;;;;;5095287;28;20355;-77
2022/03/06 08:24:00;;;;;;;;;;;;;;;;;;5095198;28;19969;-77
2022/03/06 08:26:26;;;;;;;;;;;;;;;;;;5095244;28;20020;-77
2022/03/06 08:28:51;;;;;;;;;;;;;;;;;;5094663;28;20394;-76
2022/03/06 08:31:17;;;;;;;;;;;;;;;;;;5059925;28;19951;-77
2022/03/06 08:33:42;;;;;;;;;;;;;;;;;;5095121;28;19916;-77
2022/03/06 08:36:08;;;;;;;;;;;;;;;;;;5094968;28;19920;-77
2022/03/06 08:38:33;;;;;;;;;;;;;;;;;;5095025;28;19916;-75
2022/03/06 08:40:59;;;;;;;;;;;;;;;;;;5094835;28;20003;-76
2022/03/06 08:43:27;;;;;;;;;;;;;;;;;;5094910;28;20273;-77
2022/03/06 08:45:52;;;;;;;;;;;;;;;;;;5094798;28;19923;-76
2022/03/06 08:48:17;;;;;;;;;;;;;;;;;;5095012;28;19916;-77
2022/03/06 08:50:43;;;;;;;;;;;;;;;;;;5094725;28;20436;-76
2022/03/06 08:53:08;;;;;;;;;;;;;;;;;;5094734;28;19916;-77
2022/03/06 08:55:34;;;;;;;;;;;;;;;;;;5094461;28;20395;-78
2022/03/06 08:57:59;;;;;;;;;;;;;;;;;;5094588;28;19973;-76
2022/03/06 09:00:25;;;;;;;;;;;;;;;;;;5094532;28;19942;-76
2022/03/06 09:02:50;;;;;;;;;;;;;;;;;;5094567;28;20006;-77
2022/03/06 09:05:16;;;;;;;;;;;;;;;;;;5094626;28;19916;-76
2022/03/06 09:07:42;;;;;;;;;;;;;;;;;;5094390;28;19916;-76
2022/03/06 09:10:09;;;;;;;;;;;;;;;;;;5094441;28;19920;-77
2022/03/06 09:12:34;;;;;;;;;;;;;;;;;;5094881;28;20363;-77
2022/03/06 09:15:00;;;;;;;;;;;;;;;;;;5094609;28;19922;-77
2022/03/06 09:17:25;;;;;;;;;;;;;;;;;;5094339;28;20275;-79
2022/03/06 09:19:50;;;;;;;;;;;;;;;;;;5094080;28;20363;-79
2022/03/06 09:22:16;;;;;;;;;;;;;;;;;;5094491;28;19920;-78
2022/03/06 09:24:41;;;;;;;;;;;;;;;;;;5094319;28;19912;-78
2022/03/06 09:27:07;;;;;;;;;;;;;;;;;;5094345;28;19916;-78
2022/03/06 09:29:32;;;;;;;;;;;;;;;;;;5094179;28;19953;-77
2022/03/06 09:31:57;;;;;;;;;;;;;;;;;;5094039;28;20291;-78
2022/03/06 09:34:23;;;;;;;;;;;;;;;;;;5094371;28;20287;-78
2022/03/06 09:36:48;;;;;;;;;;;;;;;;;;5094060;28;19912;-78
2022/03/06 09:39:14;;;;;;;;;;;;;;;;;;5093931;28;19916;-78
2022/03/06 09:41:40;;;;;;;;;;;;;;;;;;5093838;28;20068;-77
2022/03/06 09:44:09;;;;;;;;;;;;;;;;;;5093851;28;19922;-79
2022/03/06 09:46:35;;;;;;;;;;;;;;;;;;5093915;28;19920;-78
2022/03/06 09:49:01;;;;;;;;;;;;;;;;;;5093990;28;20356;-78
2022/03/06 09:51:27;;;;;;;;;;;;;;;;;;5093874;28;19920;-80
2022/03/06 09:53:52;;;;;;;;;;;;;;;;;;5093879;28;19916;-78
2022/03/06 09:56:18;;;;;;;;;;;;;;;;;;5093662;28;19920;-78
2022/03/06 09:58:43;;;;;;;;;;;;;;;;;;5093879;28;19916;-78
2022/03/06 10:01:08;;;;;;;;;;;;;;;;;;5093901;28;19923;-79
2022/03/06 10:03:37;;;;;;;;;;;;;;;;;;5093790;28;19923;-80
2022/03/06 10:06:07;;;;;;;;;;;;;;;;;;5094022;28;19916;-77
2022/03/06 10:08:32;;;;;;;;;;;;;;;;;;5094246;28;20280;-78
2022/03/06 10:10:59;;;;;;;;;;;;;;;;;;5092453;28;19927;-77
2022/03/06 10:13:26;;;;;;;;;;;;;;;;;;5092364;28;19916;-78
2022/03/06 10:15:59;;;;;;;;;;;;;;;;;;5093430;28;19927;-78
2022/03/06 10:18:24;;;;;;;;;;;;;;;;;;5093603;28;19993;-80
2022/03/06 10:20:50;;;;;;;;;;;;;;;;;;5093744;28;19978;-79
2022/03/06 10:23:25;;;;;;;;;;;;;;;;;;5093864;28;19930;-78
2022/03/06 10:26:04;;;;;;;;;;;;;;;;;;5093443;28;20283;-79
2022/03/06 10:28:30;;;;;;;;;;;;;;;;;;5093591;28;19924;-79
2022/03/06 10:31:05;;;;;;;;;;;;;;;;;;5093535;28;19916;-78
2022/03/06 10:33:30;;;;;;;;;;;;;;;;;;5093565;28;19916;-79
2022/03/06 10:35:58;;;;;;;;;;;;;;;;;;5093404;28;19916;-78
2022/03/06 10:38:26;;;;;;;;;;;;;;;;;;5093480;28;19916;-79
2022/03/06 10:40:52;;;;;;;;;;;;;;;;;;5093349;28;20356;-79
2022/03/06 10:43:22;;;;;;;;;;;;;;;;;;5093486;28;19923;-81
2022/03/06 10:45:48;;;;;;;;;;;;;;;;;;5093342;28;19994;-79
2022/03/06 10:48:14;;;;;;;;;;;;;;;;;;5093220;28;19916;-81
2022/03/06 10:50:40;;;;;;;;;;;;;;;;;;5093339;28;19916;-82
2022/03/06 10:53:18;;;;;;;;;;;;;;;;;;5094539;28;19916;-81
2022/03/06 10:55:44;;;;;;;;;;;;;;;;;;5096944;28;19927;-81
2022/03/06 10:58:10;;;;;;;;;;;;;;;;;;5096972;28;19920;-80
2022/03/06 11:00:35;;;;;;;;;;;;;;;;;;5097114;28;20360;-81
2022/03/06 11:03:04;;;;;;;;;;;;;;;;;;5096903;28;20275;-82
2022/03/06 11:05:32;;;;;;;;;;;;;;;;;;5096844;28;19982;-84
2022/03/06 11:07:57;;;;;;;;;;;;;;;;;;5096914;28;19926;-83
2022/03/06 11:10:23;;;;;;;;;;;;;;;;;;5097018;28;20376;-82
2022/03/06 11:12:49;;;;;;;;;;;;;;;;;;5096765;28;20440;-81
2022/03/06 11:15:15;;;;;;;;;;;;;;;;;;5095408;28;20403;-82
2022/03/06 11:17:41;;;;;;;;;;;;;;;;;;5096648;28;19942;-82
2022/03/06 11:20:07;;;;;;;;;;;;;;;;;;5096742;28;20088;-81
2022/03/06 11:22:36;;;;;;;;;;;;;;;;;;5096798;28;20387;-81
2022/03/06 11:25:06;;;;;;;;;;;;;;;;;;5096556;28;19917;-80
2022/03/06 11:27:42;;;;;;;;;;;;;;;;;;5096565;28;19922;-78
2022/03/06 11:30:09;;;;;;;;;;;;;;;;;;5096426;28;20015;-81
2022/03/06 11:32:35;;;;;;;;;;;;;;;;;;5096407;28;19922;-79
2022/03/06 11:35:08;;;;;;;;;;;;;;;;;;5096299;28;19942;-80
2022/03/06 11:37:48;;;;;;;;;;;;;;;;;;5096281;28;20007;-74
2022/03/06 11:40:32;;;;;;;;;;;;;;;;;;5094818;28;20382;-81
2022/03/06 11:42:58;;;;;;;;;;;;;;;;;;5096369;28;19995;-77
2022/03/06 11:45:42;;;;;;;;;;;;;;;;;;5096285;28;19944;-76
2022/03/06 11:48:07;;;;;;;;;;;;;;;;;;5095960;28;19916;-78
2022/03/06 11:50:33;;;;;;;;;;;;;;;;;;5096225;28;20419;-79
2022/03/06 11:52:58;;;;;;;;;;;;;;;;;;5094679;28;19912;-78
2022/03/06 11:55:32;;;;;;;;;;;;;;;;;;5094402;28;20010;-78
2022/03/06 11:57:57;;;;;;;;;;;;;;;;;;5095804;28;19916;-79
2022/03/06 12:00:28;;;;;;;;;;;;;;;;;;5095608;28;20355;-78
2022/03/06 12:02:56;;;;;;;;;;;;;;;;;;5095785;28;19916;-77
2022/03/06 12:05:22;;;;;;;;;;;;;;;;;;5095666;28;19912;-78
2022/03/06 12:07:49;;;;;;;;;;;;;;;;;;5095682;28;19923;-77
2022/03/06 12:10:15;;;;;;;;;;;;;;;;;;5095561;28;19913;-77
2022/03/06 12:12:41;;;;;;;;;;;;;;;;;;5095525;28;19938;-77
2022/03/06 12:15:16;;;;;;;;;;;;;;;;;;5095517;28;20014;-78
2022/03/06 12:17:42;;;;;;;;;;;;;;;;;;5095478;28;19919;-78
2022/03/06 12:20:08;;;;;;;;;;;;;;;;;;5095240;28;20428;-77
2022/03/06 12:22:35;;;;;;;;;;;;;;;;;;5095423;28;19920;-77
2022/03/06 12:25:03;;;;;;;;;;;;;;;;;;5095314;28;19916;-77
2022/03/06 12:27:29;;;;;;;;;;;;;;;;;;5094011;28;19945;-77
2022/03/06 12:29:59;;;;;;;;;;;;;;;;;;5095071;28;19916;-77
2022/03/06 12:32:24;;;;;;;;;;;;;;;;;;5095204;28;20360;-77
2022/03/06 12:34:57;;;;;;;;;;;;;;;;;;5095342;28;19930;-78
2022/03/06 12:37:23;;;;;;;;;;;;;;;;;;5095185;28;19915;-77
2022/03/06 12:39:49;;;;;;;;;;;;;;;;;;5094996;28;19916;-78
2022/03/06 12:42:21;;;;;;;;;;;;;;;;;;5095032;28;19922;-77
2022/03/06 12:44:51;;;;;;;;;;;;;;;;;;5095231;28;20338;-77
2022/03/06 12:47:17;;;;;;;;;;;;;;;;;;5094889;28;19920;-78
2022/03/06 12:49:45;;;;;;;;;;;;;;;;;;5094799;28;20371;-77
2022/03/06 12:52:10;;;;;;;;;;;;;;;;;;5094724;28;19927;-77
2022/03/06 12:54:36;;;;;;;;;;;;;;;;;;5094807;28;20015;-77
2022/03/06 12:57:01;;;;;;;;;;;;;;;;;;5094765;28;19958;-77
2022/03/06 12:59:27;;;;;;;;;;;;;;;;;;5094580;28;19969;-78
2022/03/06 13:01:52;;;;;;;;;;;;;;;;;;5093400;28;19923;-77
2022/03/06 13:04:22;;;;;;;;;;;;;;;;;;5093804;28;20321;-78
2022/03/06 13:06:47;;;;;;;;;;;;;;;;;;5094720;28;20299;-78
2022/03/06 13:09:21;;;;;;;;;;;;;;;;;;5094340;28;19916;-78
2022/03/06 13:11:47;;;;;;;;;;;;;;;;;;5094291;28;20375;-77
2022/03/06 13:14:15;;;;;;;;;;;;;;;;;;5094571;28;19916;-78
2022/03/06 13:16:40;;;;;;;;;;;;;;;;;;5093907;28;19916;-77
2022/03/06 13:19:07;;;;;;;;;;;;;;;;;;5094529;28;20359;-77
2022/03/06 13:21:37;;;;;;;;;;;;;;;;;;5094340;28;20291;-81
2022/03/06 13:24:08;;;;;;;;;;;;;;;;;;5094159;28;19916;-78
2022/03/06 13:26:34;;;;;;;;;;;;;;;;;;5094502;28;19928;-78
2022/03/06 13:28:59;;;;;;;;;;;;;;;;;;5092864;28;20363;-78
2022/03/06 13:31:25;;;;;;;;;;;;;;;;;;5094165;28;19978;-77
2022/03/06 13:34:04;;;;;;;;;;;;;;;;;;5093019;28;19928;-77
2022/03/06 13:36:29;;;;;;;;;;;;;;;;;;5092975;28;19920;-78
2022/03/06 13:38:59;;;;;;;;;;;;;;;;;;5093985;28;20002;-77
2022/03/06 13:41:24;;;;;;;;;;;;;;;;;;5092729;28;20426;-77
2022/03/06 13:43:50;;;;;;;;;;;;;;;;;;5093770;28;19943;-77
2022/03/06 13:46:16;;;;;;;;;;;;;;;;;;5093831;28;19920;-78
2022/03/06 13:48:41;;;;;;;;;;;;;;;;;;5093901;28;20333;-78
2022/03/06 13:51:19;;;;;;;;;;;;;;;;;;5092875;28;19938;-78
2022/03/06 13:53:52;;;;;;;;;;;;;;;;;;5093905;28;19923;-77
2022/03/06 13:56:26;;;;;;;;;;;;;;;;;;5073372;28;19956;-78
2022/03/06 13:58:53;;;;;;;;;;;;;;;;;;5072080;28;19920;-77
2022/03/06 14:01:19;;;;;;;;;;;;;;;;;;5055478;28;19916;-78
2022/03/06 14:03:46;;;;;;;;;;;;;;;;;;5073567;28;19917;-78
2022/03/06 14:06:12;;;;;;;;;;;;;;;;;;5073468;28;19955;-78
2022/03/06 14:08:39;;;;;;;;;;;;;;;;;;5073467;28;20364;-79
2022/03/06 14:11:05;;;;;;;;;;;;;;;;;;5073431;28;19923;-77
2022/03/06 14:13:32;;;;;;;;;;;;;;;;;;5073502;28;19923;-77
2022/03/06 14:15:59;;;;;;;;;;;;;;;;;;5073285;28;19923;-78
2022/03/06 14:18:34;;;;;;;;;;;;;;;;;;5073638;28;20019;-79
2022/03/06 14:21:04;;;;;;;;;;;;;;;;;;5073488;28;19917;-78
2022/03/06 14:23:30;;;;;;;;;;;;;;;;;;5073570;28;20359;-79
2022/03/06 14:25:55;;;;;;;;;;;;;;;;;;5073279;28;19956;-79
2022/03/06 14:28:20;;;;;;;;;;;;;;;;;;5075066;28;20288;-77
2022/03/06 14:30:46;;;;;;;;;;;;;;;;;;5077234;28;20358;-78
2022/03/06 14:33:12;;;;;;;;;;;;;;;;;;5077330;28;19923;-78
2022/03/06 14:35:37;;;;;;;;;;;;;;;;;;5077166;28;19920;-78
2022/03/06 14:38:03;;;;;;;;;;;;;;;;;;5076992;28;19939;-81
2022/03/06 14:40:30;;;;;;;;;;;;;;;;;;5077060;28;19916;-80
2022/03/06 14:42:55;;;;;;;;;;;;;;;;;;5077251;28;20011;-78
2022/03/06 14:45:21;;;;;;;;;;;;;;;;;;5076974;28;20387;-79
2022/03/06 14:47:46;;;;;;;;;;;;;;;;;;5076869;28;20010;-78
2022/03/06 14:50:13;;;;;;;;;;;;;;;;;;5076643;28;19916;-79
2022/03/06 14:52:38;;;;;;;;;;;;;;;;;;5059158;28;19956;-78
2022/03/06 14:55:04;;;;;;;;;;;;;;;;;;5076690;28;19952;-80
2022/03/06 14:57:32;;;;;;;;;;;;;;;;;;5076712;28;19927;-78
2022/03/06 14:59:58;;;;;;;;;;;;;;;;;;5076436;28;19916;-77
2022/03/06 15:02:23;;;;;;;;;;;;;;;;;;5076553;28;19923;-79
2022/03/06 15:04:49;;;;;;;;;;;;;;;;;;5076593;28;19916;-78
2022/03/06 15:07:14;;;;;;;;;;;;;;;;;;5076373;28;19916;-79
2022/03/06 15:09:40;;;;;;;;;;;;;;;;;;5076442;28;20253;-79
2022/03/06 15:12:07;;;;;;;;;;;;;;;;;;5076398;28;20383;-78
2022/03/06 15:14:33;;;;;;;;;;;;;;;;;;5076422;28;19970;-78
2022/03/06 15:16:58;;;;;;;;;;;;;;;;;;5076378;28;19921;-78
2022/03/06 15:19:24;;;;;;;;;;;;;;;;;;5076247;28;20356;-78
2022/03/06 15:21:49;;;;;;;;;;;;;;;;;;5076358;28;20387;-79
2022/03/06 15:24:15;;;;;;;;;;;;;;;;;;5076262;28;19917;-79
2022/03/06 15:26:41;;;;;;;;;;;;;;;;;;5076404;28;20019;-79
2022/03/06 15:29:06;;;;;;;;;;;;;;;;;;5076241;28;19967;-78
2022/03/06 15:31:32;;;;;;;;;;;;;;;;;;5076135;28;19920;-78
2022/03/06 15:33:58;;;;;;;;;;;;;;;;;;5075939;28;19917;-79
2022/03/06 15:36:25;;;;;;;;;;;;;;;;;;5076290;28;19978;-78
2022/03/06 15:38:50;;;;;;;;;;;;;;;;;;5075508;28;19922;-78
2022/03/06 15:41:16;;;;;;;;;;;;;;;;;;5076054;28;19920;-79
2022/03/06 15:43:41;;;;;;;;;;;;;;;;;;5075855;28;20011;-79
2022/03/06 15:46:07;;;;;;;;;;;;;;;;;;5091425;28;19920;-78
2022/03/06 15:48:33;;;;;;;;;;;;;;;;;;5075834;28;19917;-78
2022/03/06 15:50:58;;;;;;;;;;;;;;;;;;5075757;28;19916;-78
2022/03/06 15:53:24;;;;;;;;;;;;;;;;;;5075652;28;19962;-78
2022/03/06 15:55:49;;;;;;;;;;;;;;;;;;5075626;28;19974;-78
2022/03/06 15:58:15;;;;;;;;;;;;;;;;;;5075517;28;19917;-78
2022/03/06 16:00:42;;;;;;;;;;;;;;;;;;5057880;28;20353;-78
2022/03/06 16:03:07;;;;;;;;;;;;;;;;;;5075518;28;19917;-78
2022/03/06 16:05:34;;;;;;;;;;;;;;;;;;5075382;28;19916;-78
2022/03/06 16:07:59;;;;;;;;;;;;;;;;;;5075337;28;19916;-79
2022/03/06 16:10:25;;;;;;;;;;;;;;;;;;5090992;28;19922;-78
2022/03/06 16:12:50;;;;;;;;;;;;;;;;;;5075864;28;19916;-78
2022/03/06 16:15:15;;;;;;;;;;;;;;;;;;5075288;28;20335;-78
2022/03/06 16:17:41;;;;;;;;;;;;;;;;;;5075206;28;19916;-79
2022/03/06 16:20:06;;;;;;;;;;;;;;;;;;5075027;28;19927;-79
2022/03/06 16:22:32;;;;;;;;;;;;;;;;;;5075180;28;19916;-79
2022/03/06 16:24:57;;;;;;;;;;;;;;;;;;5075205;28;20007;-79
2022/03/06 16:27:23;;;;;;;;;;;;;;;;;;5075303;28;20006;-79
2022/03/06 16:29:48;;;;;;;;;;;;;;;;;;5075009;28;19916;-78
2022/03/06 16:32:14;;;;;;;;;;;;;;;;;;5074896;28;19931;-78
2022/03/06 16:34:39;;;;;;;;;;;;;;;;;;5074936;28;19916;-77
2022/03/06 16:37:05;;;;;;;;;;;;;;;;;;5074984;28;20265;-78
2022/03/06 16:39:34;;;;;;;;;;;;;;;;;;5074704;28;20018;-78